Citta Di Savona — IMDS — position and weather

sailwx.info

Track history (hours):
 
Tides and Currents Weather Stations Pressure Air Temp Water Temp Dewpoint Dewpoint Depression Visibility Wind Speed Wind Dir Waves Ship Positions

Citta Di Savona

Last reported at 2016-Jul-28 11:21 UTC. Time now 2016-Jul-30 05:23 UTC.
Position N 44°18' E 008°29'.

Length 31 m; draft 4.2 m.

Type: Tug. MMSI: 247402000.

Date/timePositionNaut miles runAvg speedWind from/ knotsBaromVisibWave heightAir tempDewpointWater temp
2016-Jul-28 11:21N 44°18' E 008°29'1 1.2
2016-Jul-28 10:33N 44°19' E 008°31'2 0.3
2016-Jul-28 05:33N 44°17' E 008°29'2 1.5
2016-Jul-28 04:33N 44°16' E 008°28'2 0.2
2016-Jul-27 17:27N 44°18' E 008°29'2 1.7
2016-Jul-27 16:34N 44°17' E 008°28'0 0.2
2016-Jul-27 15:11N 44°17' E 008°28'2 2.9
2016-Jul-27 14:26N 44°19' E 008°30'1 0.0
2016-Jul-26 07:33N 44°18' E 008°29'2 1.8
2016-Jul-26 06:33N 44°17' E 008°27'1 1.3
2016-Jul-26 05:33N 44°16' E 008°29'3 3.3
2016-Jul-26 04:33N 44°19' E 008°30'1 0.1
2016-Jul-25 21:32N 44°18' E 008°29'0 0.0
2016-Jul-25 20:32N 44°18' E 008°29'0 0.0
2016-Jul-25 19:32N 44°18' E 008°29'0 0.0
2016-Jul-25 18:32N 44°18' E 008°29'0 0.0
2016-Jul-25 17:14N 44°18' E 008°29'0 0.0
2016-Jul-25 16:32N 44°18' E 008°29'0 0.0
2016-Jul-25 15:32N 44°18' E 008°29'0 0.0
2016-Jul-25 14:26N 44°18' E 008°29'0 0.0
2016-Jul-25 13:32N 44°18' E 008°29'0 0.0
2016-Jul-25 12:32N 44°18' E 008°29'0 0.0
2016-Jul-25 07:33N 44°18' E 008°29'0 0.0
2016-Jul-25 06:33N 44°18' E 008°29'0 0.0
2016-Jul-25 05:27N 44°18' E 008°29'0 0.0
2016-Jul-25 04:33N 44°18' E 008°29'0 0.0
2016-Jul-25 03:33N 44°18' E 008°29'0 0.0
2016-Jul-25 02:33N 44°18' E 008°29'0 0.0
2016-Jul-25 01:33N 44°18' E 008°29'0 0.0
2016-Jul-25 00:33N 44°18' E 008°29'0 0.0
2016-Jul-24 23:33N 44°18' E 008°29'0 0.0
2016-Jul-24 22:33N 44°18' E 008°29'0 0.0
2016-Jul-24 12:31N 44°18' E 008°29'0 0.0
2016-Jul-24 11:31N 44°18' E 008°29'0 0.5
2016-Jul-24 10:33N 44°19' E 008°30'0 0.5
2016-Jul-24 09:31N 44°18' E 008°29'0 0.0
2016-Jul-24 08:25N 44°18' E 008°29'1 1.0
2016-Jul-24 07:33N 44°19' E 008°30'1 0.8
2016-Jul-24 06:31N 44°18' E 008°29'0 0.2
2016-Jul-24 05:31N 44°19' E 008°29'0 0.2
2016-Jul-24 04:32N 44°18' E 008°29'0 0.0
2016-Jul-23 17:19N 44°18' E 008°29'0 0.4
2016-Jul-23 16:22N 44°19' E 008°30'1 0.7
2016-Jul-23 15:30N 44°18' E 008°30'2 2.4
2016-Jul-23 14:28N 44°17' E 008°28'0 0.2
2016-Jul-23 13:31N 44°17' E 008°28'2 1.7
2016-Jul-23 12:17N 44°18' E 008°29'0 0.0
2016-Jul-23 07:33N 44°18' E 008°29'0 0.0
2016-Jul-23 06:33N 44°18' E 008°29'0 0.0
2016-Jul-23 04:33N 44°18' E 008°29'0 0.0
2016-Jul-23 03:33N 44°18' E 008°29'0 0.0
2016-Jul-23 02:33N 44°18' E 008°29'0 0.0
2016-Jul-23 01:33N 44°18' E 008°29'0 0.0
2016-Jul-23 00:33N 44°18' E 008°29'0 0.0
2016-Jul-22 23:33N 44°18' E 008°29'0 0.0
2016-Jul-22 22:33N 44°18' E 008°29'0 0.0
2016-Jul-22 21:33N 44°18' E 008°29'0 0.0
2016-Jul-22 20:33N 44°18' E 008°29'0 0.0
2016-Jul-22 19:33N 44°18' E 008°29'0 0.0
2016-Jul-22 18:33N 44°18' E 008°29'0 0.0
2016-Jul-22 17:33N 44°18' E 008°29'0 0.0
2016-Jul-22 16:15N 44°18' E 008°29'0 0.0
2016-Jul-22 15:33N 44°18' E 008°29'0 0.0
2016-Jul-22 14:33N 44°18' E 008°29'0 0.0
2016-Jul-22 13:33N 44°18' E 008°29'0 0.0
2016-Jul-22 12:33N 44°18' E 008°29'0 0.0
2016-Jul-22 11:33N 44°18' E 008°29'0 0.0
2016-Jul-22 07:34N 44°18' E 008°29'3 1.5
2016-Jul-22 05:33N 44°16' E 008°28'1 0.6
2016-Jul-22 04:33N 44°16' E 008°28'2 0.2
2016-Jul-21 17:33N 44°18' E 008°29'0 0.3
2016-Jul-21 16:33N 44°19' E 008°30'0 0.3
2016-Jul-21 15:28N 44°18' E 008°29'0 0.0
2016-Jul-21 14:22N 44°18' E 008°29'0 0.0
2016-Jul-21 13:28N 44°18' E 008°29'0 0.0
2016-Jul-21 12:28N 44°18' E 008°29'0 0.0
2016-Jul-21 11:16N 44°18' E 008°29'0 0.0
2016-Jul-21 10:28N 44°18' E 008°29'0 0.5
2016-Jul-21 09:33N 44°18' E 008°30'2 2.1
2016-Jul-21 08:28N 44°17' E 008°28'2 2.2
2016-Jul-21 07:25N 44°18' E 008°29'0 0.0
2016-Jul-21 06:31N 44°18' E 008°29'0 0.0
2016-Jul-21 05:31N 44°18' E 008°29'0 0.0
2016-Jul-21 04:31N 44°18' E 008°29'0 0.0
2016-Jul-20 21:28N 44°18' E 008°29'0 0.0
2016-Jul-20 20:28N 44°18' E 008°29'0 0.0
2016-Jul-20 19:28N 44°18' E 008°29'0 0.0
2016-Jul-20 18:28N 44°18' E 008°29'0 0.0
2016-Jul-20 17:28N 44°18' E 008°29'0 0.0
2016-Jul-20 16:28N 44°18' E 008°29'0 0.0
2016-Jul-20 15:27N 44°18' E 008°29'0 0.0
2016-Jul-20 14:33N 44°18' E 008°29'0 0.0
2016-Jul-20 13:33N 44°18' E 008°29'0 0.0
2016-Jul-20 12:33N 44°18' E 008°29'0 0.0
2016-Jul-19 17:30N 44°18' E 008°29'0 0.0
2016-Jul-19 16:30N 44°18' E 008°29'0 0.0
2016-Jul-19 15:30N 44°18' E 008°29'0 0.0
2016-Jul-19 14:30N 44°18' E 008°29'0 0.0
2016-Jul-19 13:30N 44°18' E 008°29'0 0.0
2016-Jul-19 12:30N 44°18' E 008°29'0 0.0
2016-Jul-19 11:24N 44°18' E 008°29'0 0.0
2016-Jul-19 10:30N 44°18' E 008°29'0 0.0
2016-Jul-19 09:30N 44°18' E 008°29'0 0.0
2016-Jul-19 08:30N 44°18' E 008°29'0 0.0
2016-Jul-19 07:33N 44°18' E 008°29'0 0.0
2016-Jul-19 04:30N 44°18' E 008°29'0 0.0
2016-Jul-18 21:32N 44°18' E 008°29'0 0.0
2016-Jul-18 20:20N 44°18' E 008°29'0 0.0
2016-Jul-18 19:32N 44°18' E 008°29'0 0.0
2016-Jul-18 18:31N 44°18' E 008°29'0 0.0
2016-Jul-18 17:33N 44°18' E 008°29'0 0.0
2016-Jul-18 16:33N 44°18' E 008°29'0 0.4
2016-Jul-18 15:33N 44°19' E 008°30'0 0.3
2016-Jul-18 14:30N 44°18' E 008°29'0 0.0
2016-Jul-18 13:24N 44°18' E 008°29'0 0.0
2016-Jul-18 12:30N 44°18' E 008°29'  
Track history (hours):
 
Tides and Currents Weather Stations Pressure Air Temp Water Temp Dewpoint Dewpoint Depression Visibility Wind Speed Wind Dir Waves Ship Positions

Citta Di Savona

Last reported at 2016-Jul-28 11:21 UTC. Time now 2016-Jul-30 05:23 UTC.
Position N 44°18' E 008°29'.

Length 31 m; draft 4.2 m.

Type: Tug. MMSI: 247402000.

Date/timePositionNaut miles runAvg speedWind from/ knotsBaromVisibWave heightAir tempDewpointWater temp
2016-Jul-28 11:21N 44°18' E 008°29'1 1.2
2016-Jul-28 10:33N 44°19' E 008°31'2 0.3
2016-Jul-28 05:33N 44°17' E 008°29'2 1.5
2016-Jul-28 04:33N 44°16' E 008°28'2 0.2
2016-Jul-27 17:27N 44°18' E 008°29'2 1.7
2016-Jul-27 16:34N 44°17' E 008°28'0 0.2
2016-Jul-27 15:11N 44°17' E 008°28'2 2.9
2016-Jul-27 14:26N 44°19' E 008°30'1 0.0
2016-Jul-26 07:33N 44°18' E 008°29'2 1.8
2016-Jul-26 06:33N 44°17' E 008°27'1 1.3
2016-Jul-26 05:33N 44°16' E 008°29'3 3.3
2016-Jul-26 04:33N 44°19' E 008°30'1 0.1
2016-Jul-25 21:32N 44°18' E 008°29'0 0.0
2016-Jul-25 20:32N 44°18' E 008°29'0 0.0
2016-Jul-25 19:32N 44°18' E 008°29'0 0.0
2016-Jul-25 18:32N 44°18' E 008°29'0 0.0
2016-Jul-25 17:14N 44°18' E 008°29'0 0.0
2016-Jul-25 16:32N 44°18' E 008°29'0 0.0
2016-Jul-25 15:32N 44°18' E 008°29'0 0.0
2016-Jul-25 14:26N 44°18' E 008°29'0 0.0
2016-Jul-25 13:32N 44°18' E 008°29'0 0.0
2016-Jul-25 12:32N 44°18' E 008°29'0 0.0
2016-Jul-25 07:33N 44°18' E 008°29'0 0.0
2016-Jul-25 06:33N 44°18' E 008°29'0 0.0
2016-Jul-25 05:27N 44°18' E 008°29'0 0.0
2016-Jul-25 04:33N 44°18' E 008°29'0 0.0
2016-Jul-25 03:33N 44°18' E 008°29'0 0.0
2016-Jul-25 02:33N 44°18' E 008°29'0 0.0
2016-Jul-25 01:33N 44°18' E 008°29'0 0.0
2016-Jul-25 00:33N 44°18' E 008°29'0 0.0
2016-Jul-24 23:33N 44°18' E 008°29'0 0.0
2016-Jul-24 22:33N 44°18' E 008°29'0 0.0
2016-Jul-24 12:31N 44°18' E 008°29'0 0.0
2016-Jul-24 11:31N 44°18' E 008°29'0 0.5
2016-Jul-24 10:33N 44°19' E 008°30'0 0.5
2016-Jul-24 09:31N 44°18' E 008°29'0 0.0
2016-Jul-24 08:25N 44°18' E 008°29'1 1.0
2016-Jul-24 07:33N 44°19' E 008°30'1 0.8
2016-Jul-24 06:31N 44°18' E 008°29'0 0.2
2016-Jul-24 05:31N 44°19' E 008°29'0 0.2
2016-Jul-24 04:32N 44°18' E 008°29'0 0.0
2016-Jul-23 17:19N 44°18' E 008°29'0 0.4
2016-Jul-23 16:22N 44°19' E 008°30'1 0.7
2016-Jul-23 15:30N 44°18' E 008°30'2 2.4
2016-Jul-23 14:28N 44°17' E 008°28'0 0.2
2016-Jul-23 13:31N 44°17' E 008°28'2 1.7
2016-Jul-23 12:17N 44°18' E 008°29'0 0.0
2016-Jul-23 07:33N 44°18' E 008°29'0 0.0
2016-Jul-23 06:33N 44°18' E 008°29'0 0.0
2016-Jul-23 04:33N 44°18' E 008°29'0 0.0
2016-Jul-23 03:33N 44°18' E 008°29'0 0.0
2016-Jul-23 02:33N 44°18' E 008°29'0 0.0
2016-Jul-23 01:33N 44°18' E 008°29'0 0.0
2016-Jul-23 00:33N 44°18' E 008°29'0 0.0
2016-Jul-22 23:33N 44°18' E 008°29'0 0.0
2016-Jul-22 22:33N 44°18' E 008°29'0 0.0
2016-Jul-22 21:33N 44°18' E 008°29'0 0.0
2016-Jul-22 20:33N 44°18' E 008°29'0 0.0
2016-Jul-22 19:33N 44°18' E 008°29'0 0.0
2016-Jul-22 18:33N 44°18' E 008°29'0 0.0
2016-Jul-22 17:33N 44°18' E 008°29'0 0.0
2016-Jul-22 16:15N 44°18' E 008°29'0 0.0
2016-Jul-22 15:33N 44°18' E 008°29'0 0.0
2016-Jul-22 14:33N 44°18' E 008°29'0 0.0
2016-Jul-22 13:33N 44°18' E 008°29'0 0.0
2016-Jul-22 12:33N 44°18' E 008°29'0 0.0
2016-Jul-22 11:33N 44°18' E 008°29'0 0.0
2016-Jul-22 07:34N 44°18' E 008°29'3 1.5
2016-Jul-22 05:33N 44°16' E 008°28'1 0.6
2016-Jul-22 04:33N 44°16' E 008°28'2 0.2
2016-Jul-21 17:33N 44°18' E 008°29'0 0.3
2016-Jul-21 16:33N 44°19' E 008°30'0 0.3
2016-Jul-21 15:28N 44°18' E 008°29'0 0.0
2016-Jul-21 14:22N 44°18' E 008°29'0 0.0
2016-Jul-21 13:28N 44°18' E 008°29'0 0.0
2016-Jul-21 12:28N 44°18' E 008°29'0 0.0
2016-Jul-21 11:16N 44°18' E 008°29'0 0.0
2016-Jul-21 10:28N 44°18' E 008°29'0 0.5
2016-Jul-21 09:33N 44°18' E 008°30'2 2.1
2016-Jul-21 08:28N 44°17' E 008°28'2 2.2
2016-Jul-21 07:25N 44°18' E 008°29'0 0.0
2016-Jul-21 06:31N 44°18' E 008°29'0 0.0
2016-Jul-21 05:31N 44°18' E 008°29'0 0.0
2016-Jul-21 04:31N 44°18' E 008°29'0 0.0
2016-Jul-20 21:28N 44°18' E 008°29'0 0.0
2016-Jul-20 20:28N 44°18' E 008°29'0 0.0
2016-Jul-20 19:28N 44°18' E 008°29'0 0.0
2016-Jul-20 18:28N 44°18' E 008°29'0 0.0
2016-Jul-20 17:28N 44°18' E 008°29'0 0.0
2016-Jul-20 16:28N 44°18' E 008°29'0 0.0
2016-Jul-20 15:27N 44°18' E 008°29'0 0.0
2016-Jul-20 14:33N 44°18' E 008°29'0 0.0
2016-Jul-20 13:33N 44°18' E 008°29'0 0.0
2016-Jul-20 12:33N 44°18' E 008°29'0 0.0
2016-Jul-19 17:30N 44°18' E 008°29'0 0.0
2016-Jul-19 16:30N 44°18' E 008°29'0 0.0
2016-Jul-19 15:30N 44°18' E 008°29'0 0.0
2016-Jul-19 14:30N 44°18' E 008°29'0 0.0
2016-Jul-19 13:30N 44°18' E 008°29'0 0.0
2016-Jul-19 12:30N 44°18' E 008°29'0 0.0
2016-Jul-19 11:24N 44°18' E 008°29'0 0.0
2016-Jul-19 10:30N 44°18' E 008°29'0 0.0
2016-Jul-19 09:30N 44°18' E 008°29'0 0.0
2016-Jul-19 08:30N 44°18' E 008°29'0 0.0
2016-Jul-19 07:33N 44°18' E 008°29'0 0.0
2016-Jul-19 04:30N 44°18' E 008°29'0 0.0
2016-Jul-18 21:32N 44°18' E 008°29'0 0.0
2016-Jul-18 20:20N 44°18' E 008°29'0 0.0
2016-Jul-18 19:32N 44°18' E 008°29'0 0.0
2016-Jul-18 18:31N 44°18' E 008°29'0 0.0
2016-Jul-18 17:33N 44°18' E 008°29'0 0.0
2016-Jul-18 16:33N 44°18' E 008°29'0 0.4
2016-Jul-18 15:33N 44°19' E 008°30'0 0.3
2016-Jul-18 14:30N 44°18' E 008°29'0 0.0
2016-Jul-18 13:24N 44°18' E 008°29'0 0.0
2016-Jul-18 12:30N 44°18' E 008°29'  

Dump ship's entire track history